Time;durP1;ratioP1;P1;durP2;ratioP2;P2;SDS_P1;SDS_P2;PMS_P1;PMS_P2;Temp;Humidity;BMP_temperature;BMP_pressure;BME280_temperature;BME280_humidity;BME280_pressure;Samples;Min_cycle;Max_cycle;Signal;HPM_P1;HPM_P2
2022/12/27 00:00:36;;;;;;;2.80;0.47;;;12.30;83.00;12.30;96975.00;;;;5059585;28;20202;-88
2022/12/27 00:03:04;;;;;;;1.57;0.47;;;12.30;83.10;12.30;96982.00;;;;5058973;28;20252;-88
2022/12/27 00:05:31;;;;;;;0.20;0.20;;;12.30;83.10;12.30;96996.00;;;;5059083;28;20691;-88
2022/12/27 00:07:59;;;;;;;1.03;0.40;;;12.30;82.90;12.20;96997.00;;;;5059726;28;20220;-88
2022/12/27 00:10:27;;;;;;;1.13;0.30;;;12.30;82.80;12.20;97010.00;;;;5060477;28;20538;-88
2022/12/27 00:12:54;;;;;;;0.57;0.40;;;12.20;82.80;12.10;97009.00;;;;5059167;28;20369;-88
2022/12/27 00:15:21;;;;;;;1.13;0.30;;;12.20;82.90;12.10;97005.00;;;;5058773;28;20211;-88
2022/12/27 00:17:48;;;;;;;0.30;0.30;;;12.20;82.90;12.10;97005.00;;;;5059901;28;20234;-88
2022/12/27 00:20:15;;;;;;;0.83;0.20;;;12.20;83.10;12.10;97012.00;;;;5058629;28;20201;-88
2022/12/27 00:22:42;;;;;;;1.03;0.50;;;12.10;82.90;12.00;97005.00;;;;5058259;28;20247;-88
2022/12/27 00:25:11;;;;;;;0.40;0.40;;;12.10;82.90;12.00;97010.00;;;;5056332;28;20236;-87
2022/12/27 00:27:39;;;;;;;1.33;0.30;;;12.10;82.90;12.00;97015.00;;;;5055475;28;20212;-87
2022/12/27 00:30:07;;;;;;;0.60;0.37;;;12.10;83.00;11.90;97018.00;;;;5059664;28;20239;-89
2022/12/27 00:32:35;;;;;;;3.67;0.50;;;12.00;82.90;11.90;97025.00;;;;5063781;28;20304;-88
2022/12/27 00:35:02;;;;;;;0.53;0.40;;;12.00;82.90;11.80;97017.00;;;;5071401;28;20212;-88
2022/12/27 00:37:29;;;;;;;1.67;0.53;;;12.00;83.70;11.80;97020.00;;;;5075088;28;20231;-88
2022/12/27 00:39:56;;;;;;;0.80;0.40;;;11.90;83.10;11.80;97041.00;;;;5075451;28;20730;-88
2022/12/27 00:42:25;;;;;;;0.70;0.40;;;11.90;83.10;11.80;97036.00;;;;5075311;28;20566;-88
2022/12/27 00:44:52;;;;;;;0.43;0.20;;;11.90;83.00;11.80;97044.00;;;;5075219;28;20600;-88
2022/12/27 00:47:19;;;;;;;0.30;0.20;;;11.90;82.70;11.80;97047.00;;;;5075237;28;20227;-89
2022/12/27 00:49:46;;;;;;;0.20;0.20;;;11.90;82.50;11.70;97049.00;;;;5074096;28;20555;-88
2022/12/27 00:52:13;;;;;;;0.60;0.30;;;11.90;82.40;11.70;97051.00;;;;5065738;28;20209;-87
2022/12/27 00:54:40;;;;;;;0.30;0.30;;;11.80;82.00;11.60;97049.00;;;;5055165;28;20248;-87
2022/12/27 00:57:07;;;;;;;0.30;0.30;;;11.80;81.80;11.60;97052.00;;;;5055110;28;20208;-88
2022/12/27 00:59:36;;;;;;;0.53;0.30;;;11.70;81.70;11.50;97057.00;;;;5054909;28;20212;-88
2022/12/27 01:02:03;;;;;;;2.53;0.50;;;11.70;81.50;11.50;97063.00;;;;5054824;28;20224;-87
2022/12/27 01:04:30;;;;;;;0.93;0.40;;;11.70;81.50;11.40;97076.00;;;;5054650;28;20304;-87
2022/12/27 01:06:57;;;;;;;0.10;0.10;;;11.60;81.50;11.40;97079.00;;;;5054822;28;20660;-87
2022/12/27 01:09:24;;;;;;;0.37;0.37;;;11.60;81.50;11.40;97082.00;;;;5054680;28;20248;-87
2022/12/27 01:11:51;;;;;;;0.17;0.10;;;11.50;81.40;11.30;97088.00;;;;5054658;28;20224;-87
2022/12/27 01:14:18;;;;;;;0.47;0.47;;;11.50;81.30;11.30;97092.00;;;;5054969;28;20755;-87
2022/12/27 01:16:47;;;;;;;0.37;0.30;;;11.50;81.30;11.30;97098.00;;;;5055037;28;20588;-87
2022/12/27 01:19:14;;;;;;;2.93;0.40;;;11.50;81.30;11.30;97103.00;;;;5055091;28;20205;-87
2022/12/27 01:21:41;;;;;;;0.40;0.27;;;11.40;81.10;11.20;97110.00;;;;5054608;28;20291;-87
2022/12/27 01:24:08;;;;;;;1.20;0.20;;;11.40;81.00;11.20;97109.00;;;;5054831;28;20673;-87
2022/12/27 01:26:35;;;;;;;15.43;1.13;;;11.40;80.90;11.20;97115.00;;;;5054847;28;20232;-87
2022/12/27 01:29:02;;;;;;;0.73;0.20;;;11.30;81.10;11.20;97120.00;;;;5056812;28;20266;-88
2022/12/27 01:31:29;;;;;;;2.13;0.30;;;11.30;81.20;11.20;97121.00;;;;5055291;28;20212;-87
2022/12/27 01:34:00;;;;;;;1.03;0.30;;;11.30;81.20;11.20;97116.00;;;;5054593;28;20216;-87
2022/12/27 01:36:30;;;;;;;0.77;0.40;;;11.30;81.10;11.20;97120.00;;;;5054601;28;20196;-87
2022/12/27 01:38:59;;;;;;;0.30;0.23;;;11.30;80.90;11.10;97128.00;;;;5054222;28;20239;-88
2022/12/27 01:45:02;;;;;;;0.77;0.40;;;11.30;80.40;11.00;97134.00;;;;5054026;28;20227;-87
2022/12/27 01:47:44;;;;;;;0.43;0.20;;;11.20;79.20;10.90;97141.00;;;;5070908;28;20245;-87
2022/12/27 01:50:22;;;;;;;0.30;0.30;;;11.20;79.60;10.90;97167.00;;;;5074254;28;20203;-88
2022/12/27 01:52:57;;;;;;;1.07;0.17;;;11.10;79.50;10.80;97156.00;;;;5074018;28;20218;-87
2022/12/27 01:55:31;;;;;;;0.50;0.20;;;11.10;79.80;10.80;97163.00;;;;5073993;28;20289;-87
2022/12/27 01:58:05;;;;;;;0.70;0.40;;;11.10;79.70;10.80;97161.00;;;;5067926;28;20291;-88
2022/12/27 02:00:32;;;;;;;2.43;0.37;;;11.00;79.60;10.70;97166.00;;;;5053758;28;20204;-87
2022/12/27 02:03:02;;;;;;;0.40;0.40;;;11.00;79.60;10.70;97161.00;;;;5053544;28;20247;-88
2022/12/27 02:05:31;;;;;;;1.07;0.30;;;10.90;79.60;10.70;97165.00;;;;5053434;28;20247;-87
2022/12/27 02:08:14;;;;;;;0.37;0.33;;;10.90;79.40;10.60;97179.00;;;;5058074;28;20307;-87
2022/12/27 02:10:42;;;;;;;1.70;0.30;;;10.90;79.00;10.60;97180.00;;;;5053748;28;20683;-88
2022/12/27 02:13:10;;;;;;;0.30;0.27;;;10.80;79.30;10.60;97180.00;;;;5053387;28;20216;-87
2022/12/27 02:15:37;;;;;;;1.23;0.37;;;10.80;79.40;10.60;97193.00;;;;5053559;28;20207;-89
2022/12/27 02:18:05;;;;;;;1.60;0.40;;;10.70;79.50;10.50;97191.00;;;;5053349;28;20287;-88
2022/12/27 02:21:04;;;;;;;1.17;0.40;;;10.70;79.60;10.60;97199.00;;;;5053390;28;20283;-87
2022/12/27 02:24:03;;;;;;;1.73;0.23;;;10.70;79.40;10.60;97202.00;;;;5053267;28;20224;-87
2022/12/27 02:26:45;;;;;;;2.97;0.57;;;10.70;79.60;10.60;97200.00;;;;5053453;28;20177;-88
2022/12/27 02:29:36;;;;;;;3.23;0.40;;;10.70;80.10;10.60;97195.00;;;;5053202;28;20299;-87
2022/12/27 02:32:09;;;;;;;0.40;0.40;;;10.70;80.30;10.60;97200.00;;;;5053296;28;20212;-89
2022/12/27 02:34:48;;;;;;;1.57;0.37;;;10.70;80.40;10.60;97194.00;;;;5053199;28;20267;-87
2022/12/27 02:37:16;;;;;;;7.43;0.60;;;10.70;80.60;10.60;97186.00;;;;5053089;28;20247;-89
2022/12/27 02:39:48;;;;;;;2.40;0.60;;;10.70;80.80;10.70;97189.00;;;;5053687;28;20236;-88
2022/12/27 02:53:45;;;;;;;1.70;0.50;;;10.70;80.60;10.70;97210.00;;;;5052484;28;20736;-87
2022/12/27 02:59:33;;;;;;;1.90;0.60;;;10.70;80.20;10.70;97203.00;;;;5052957;28;20189;-87
2022/12/27 03:05:19;;;;;;;5.07;1.00;;;10.70;80.10;10.60;97209.00;;;;5052794;28;20253;-87
2022/12/27 03:07:55;;;;;;;0.40;0.33;;;10.70;80.20;10.60;97212.00;;;;5052550;28;20272;-88
2022/12/27 03:16:25;;;;;;;0.40;0.40;;;10.70;79.90;10.50;97230.00;;;;5052291;28;20247;-87
2022/12/27 03:19:12;;;;;;;0.67;0.40;;;10.70;80.20;10.50;97230.00;;;;5052431;28;20287;-87
2022/12/27 03:27:36;;;;;;;0.60;0.40;;;10.70;80.10;10.50;97257.00;;;;5056927;28;20779;-88
2022/12/27 03:33:15;;;;;;;3.17;0.50;;;10.60;80.20;10.50;97276.00;;;;5060456;28;20228;-88
2022/12/27 03:38:45;;;;;;;0.97;0.50;;;10.70;80.50;10.40;97290.00;;;;5061027;28;20204;-87
2022/12/27 03:44:23;;;;;;;1.77;0.50;;;10.60;79.00;10.30;97294.00;;;;5060138;28;20235;-87
2022/12/27 03:46:56;;;;;;;0.73;0.40;;;10.50;78.80;10.20;97310.00;;;;5057017;28;20204;-87
2022/12/27 03:49:31;;;;;;;1.27;0.40;;;10.50;78.30;10.20;97307.00;;;;5052362;28;20217;-87
2022/12/27 03:52:09;;;;;;;1.70;0.73;;;10.50;78.40;10.10;97323.00;;;;5052268;28;20196;-88
2022/12/27 03:54:39;;;;;;;0.37;0.30;;;10.40;77.70;10.00;97334.00;;;;5063950;28;20309;-88
2022/12/27 03:57:11;;;;;;;1.07;0.30;;;10.30;77.50;10.00;97335.00;;;;5072136;28;20220;-88
2022/12/27 03:59:39;;;;;;;0.40;0.40;;;10.30;77.10;9.90;97334.00;;;;5067570;28;20193;-88
2022/12/27 04:02:08;;;;;;;2.30;0.70;;;10.20;76.90;9.80;97336.00;;;;5057145;28;20212;-88
2022/12/27 04:04:35;;;;;;;0.50;0.43;;;10.10;76.70;9.70;97342.00;;;;5072174;28;21062;-88
2022/12/27 04:07:05;;;;;;;2.40;0.67;;;10.10;76.90;9.70;97353.00;;;;5072172;28;20184;-88
2022/12/27 04:37:01;;;;;;;0.60;0.40;;;9.40;76.80;9.00;97394.00;;;;5075334;28;20679;-88
2022/12/27 04:39:29;;;;;;;0.93;0.50;;;9.40;76.70;9.00;97405.00;;;;5075277;28;20192;-87
2022/12/27 04:55:58;;;;;;;3.30;0.60;;;9.10;77.00;8.70;97408.00;;;;5075135;28;20183;-87
2022/12/27 04:58:26;;;;;;;0.87;0.37;;;9.10;77.20;8.70;97407.00;;;;5075172;28;20204;-88
2022/12/27 05:03:41;;;;;;;0.93;0.60;;;9.00;77.00;8.70;97402.00;;;;5074951;28;20218;-88
2022/12/27 05:06:08;;;;;;;3.73;0.63;;;9.00;77.00;8.60;97407.00;;;;5074447;28;20226;-88
2022/12/27 05:14:11;;;;;;;0.50;0.50;;;8.90;77.30;8.50;97427.00;;;;5074310;28;20238;-87
2022/12/27 05:16:41;;;;;;;6.13;0.70;;;8.80;77.30;8.50;97432.00;;;;5076530;28;20243;-89
2022/12/27 05:19:12;;;;;;;2.17;0.40;;;8.80;77.50;8.50;97428.00;;;;5077982;28;20219;-88
2022/12/27 05:25:33;;;;;;;0.80;0.40;;;8.80;77.60;8.50;97433.00;;;;5078409;28;20218;-88
2022/12/27 05:27:16;;;;;;;0.77;0.40;;;8.80;77.10;8.40;97422.00;;;;5083351;28;20195;-88
2022/12/27 05:29:43;;;;;;;1.93;0.40;;;8.70;77.00;8.40;97424.00;;;;5079770;28;20314;-87
2022/12/27 05:32:11;;;;;;;1.37;0.30;;;8.70;77.00;8.30;97430.00;;;;5076568;28;20664;-88
2022/12/27 05:34:38;;;;;;;1.50;0.40;;;8.70;76.70;8.30;97430.00;;;;5075898;28;20244;-87
2022/12/27 05:37:05;;;;;;;1.37;0.70;;;8.60;76.40;8.30;97438.00;;;;5074054;28;20200;-88
2022/12/27 05:39:32;;;;;;;2.60;0.70;;;8.60;76.50;8.20;97437.00;;;;5074221;28;20718;-88
2022/12/27 05:41:59;;;;;;;2.10;0.60;;;8.50;76.50;8.20;97443.00;;;;5074166;28;20272;-88
2022/12/27 05:44:27;;;;;;;0.90;0.40;;;8.50;76.40;8.20;97439.00;;;;5073937;28;20302;-87
2022/12/27 05:46:55;;;;;;;1.20;0.50;;;8.50;76.10;8.10;97444.00;;;;5074128;28;20632;-87
2022/12/27 05:49:22;;;;;;;0.97;0.40;;;8.40;76.70;8.10;97442.00;;;;5073823;28;20220;-87
2022/12/27 05:51:50;;;;;;;2.40;0.40;;;8.40;76.10;8.10;97443.00;;;;5073997;28;20220;-87
2022/12/27 05:54:17;;;;;;;4.43;0.87;;;8.40;76.40;8.00;97447.00;;;;5074083;28;20224;-87
2022/12/27 05:56:44;;;;;;;7.13;1.10;;;8.30;76.40;8.00;97460.00;;;;5073872;28;20234;-87
2022/12/27 05:59:11;;;;;;;0.40;0.40;;;8.30;76.50;8.00;97457.00;;;;5073883;28;20232;-87
2022/12/27 06:01:40;;;;;;;0.37;0.37;;;8.30;76.70;8.00;97469.00;;;;5073848;28;20254;-87
2022/12/27 06:04:07;;;;;;;0.73;0.43;;;8.30;76.50;7.90;97469.00;;;;5073664;28;20303;-87
2022/12/27 06:06:34;;;;;;;1.00;0.50;;;8.20;76.20;7.90;97465.00;;;;5074075;28;20622;-88
2022/12/27 06:09:01;;;;;;;4.73;0.60;;;8.20;76.80;7.90;97465.00;;;;5073748;28;20228;-87
2022/12/27 06:11:28;;;;;;;1.83;0.50;;;8.20;76.20;7.80;97467.00;;;;5073498;28;20226;-87
2022/12/27 06:13:56;;;;;;;2.40;0.60;;;8.10;76.10;7.80;97471.00;;;;5073456;28;20250;-87
2022/12/27 06:16:23;;;;;;;0.83;0.60;;;8.10;76.00;7.70;97464.00;;;;5073581;28;20799;-88
2022/12/27 06:18:51;;;;;;;2.87;0.80;;;8.00;76.00;7.70;97467.00;;;;5073461;28;20280;-87
2022/12/27 06:21:21;;;;;;;2.63;1.00;;;8.00;75.80;7.60;97465.00;;;;5066115;28;20320;-87
2022/12/27 06:23:49;;;;;;;4.73;1.00;;;7.90;75.90;7.60;97464.00;;;;5057162;28;20310;-87
2022/12/27 06:26:19;;;;;;;2.00;0.80;;;7.90;75.90;7.50;97468.00;;;;5056361;28;20875;-88
2022/12/27 06:28:47;;;;;;;1.63;0.80;;;7.80;75.80;7.40;97477.00;;;;5056908;28;20238;-88
2022/12/27 06:31:15;;;;;;;1.03;0.80;;;7.80;76.00;7.40;97467.00;;;;5056894;28;20196;-88
2022/12/27 06:33:42;;;;;;;1.43;0.80;;;7.70;76.00;7.30;97473.00;;;;5055439;28;20220;-88
2022/12/27 06:36:14;;;;;;;4.13;0.80;;;7.60;75.90;7.30;97470.00;;;;5055587;28;20303;-88
2022/12/27 06:38:42;;;;;;;3.87;1.07;;;7.60;76.00;7.20;97474.00;;;;5054106;28;20271;-88
2022/12/27 06:41:12;;;;;;;0.97;0.90;;;7.60;76.20;7.20;97482.00;;;;5054115;28;20300;-88
2022/12/27 06:43:40;;;;;;;1.63;1.07;;;7.50;76.20;7.10;97484.00;;;;5056845;28;20231;-88
2022/12/27 06:46:12;;;;;;;2.53;1.20;;;7.50;76.20;7.10;97489.00;;;;5056498;28;20656;-87
2022/12/27 06:48:39;;;;;;;1.63;1.30;;;7.40;76.20;7.00;97492.00;;;;5053480;28;20744;-88
2022/12/27 06:51:11;;;;;;;1.97;0.97;;;7.40;76.40;7.00;97490.00;;;;5055522;28;20235;-88
2022/12/27 06:53:39;;;;;;;3.60;0.90;;;7.30;76.30;6.90;97485.00;;;;5052279;28;20303;-88
2022/12/27 06:56:07;;;;;;;1.90;1.00;;;7.30;76.70;6.90;97482.00;;;;5055214;28;20287;-87
2022/12/27 06:58:34;;;;;;;11.33;1.63;;;7.20;77.00;6.80;97477.00;;;;5054378;28;20671;-87
2022/12/27 07:01:08;;;;;;;3.57;1.10;;;7.20;77.20;6.80;97472.00;;;;5056276;28;20634;-87
2022/12/27 07:03:35;;;;;;;3.60;1.57;;;7.20;77.30;6.80;97477.00;;;;5055218;28;20999;-87
2022/12/27 07:06:03;;;;;;;1.67;1.10;;;7.10;77.40;6.80;97485.00;;;;5055062;28;20293;-87
2022/12/27 07:08:31;;;;;;;1.07;0.90;;;7.10;77.40;6.80;97485.00;;;;5055869;28;20219;-87
2022/12/27 07:11:01;;;;;;;1.07;1.00;;;7.10;77.20;6.70;97495.00;;;;5053645;28;20343;-88
2022/12/27 07:13:29;;;;;;;2.33;1.00;;;7.00;77.10;6.70;97497.00;;;;5055478;28;20263;-87
2022/12/27 07:15:56;;;;;;;1.70;0.90;;;7.00;77.10;6.70;97493.00;;;;5055656;28;20201;-87
2022/12/27 07:18:23;;;;;;;1.10;0.97;;;7.00;77.10;6.60;97501.00;;;;5054863;28;20219;-90
2022/12/27 07:20:50;;;;;;;1.63;1.00;;;7.00;77.20;6.60;97501.00;;;;5057215;28;20374;-90
2022/12/27 07:23:17;;;;;;;11.80;1.90;;;6.90;77.30;6.70;97500.00;;;;5055537;28;20783;-90
2022/12/27 07:25:45;;;;;;;3.13;1.10;;;6.90;77.60;6.70;97505.00;;;;5056121;28;20311;-90
2022/12/27 07:28:13;;;;;;;5.13;1.00;;;6.90;78.10;6.70;97513.00;;;;5056311;28;20228;-90
2022/12/27 07:30:41;;;;;;;4.07;1.07;;;6.90;78.30;6.80;97514.00;;;;5055720;28;20302;-90
2022/12/27 07:33:08;;;;;;;10.80;1.50;;;6.90;78.40;6.80;97527.00;;;;5053263;28;20302;-89
2022/12/27 07:35:35;;;;;;;1.67;1.20;;;6.90;78.60;6.80;97528.00;;;;5054178;28;20219;-90
2022/12/27 07:38:02;;;;;;;1.90;0.97;;;6.90;78.40;6.80;97529.00;;;;5055251;28;20207;-89
2022/12/27 07:40:30;;;;;;;1.10;1.00;;;6.90;78.20;6.80;97533.00;;;;5055290;28;20295;-92
2022/12/27 07:42:58;;;;;;;4.30;1.10;;;7.00;78.40;6.80;97532.00;;;;5055123;28;20228;-91
2022/12/27 07:45:25;;;;;;;0.97;0.87;;;7.00;78.50;6.80;97531.00;;;;5053911;28;20284;-90
2022/12/27 07:47:52;;;;;;;2.33;1.23;;;6.90;78.50;6.80;97527.00;;;;5055003;28;20196;-91
2022/12/27 07:50:19;;;;;;;2.83;1.20;;;7.00;78.60;6.80;97524.00;;;;5053017;28;20228;-91
2022/12/27 07:52:46;;;;;;;1.40;1.20;;;7.00;78.70;6.80;97520.00;;;;5055192;28;20273;-90
2022/12/27 07:55:14;;;;;;;1.67;1.03;;;7.00;78.30;6.80;97520.00;;;;5055673;28;20286;-89
2022/12/27 07:57:41;;;;;;;5.90;1.70;;;7.00;78.00;6.80;97516.00;;;;5056851;28;20218;-89
2022/12/27 08:00:11;;;;;;;3.37;1.73;;;7.00;77.80;6.80;97528.00;;;;5055964;28;20295;-89
2022/12/27 08:02:38;;;;;;;7.80;1.60;;;7.00;77.90;6.80;97519.00;;;;5058635;28;20236;-88
2022/12/27 08:05:06;;;;;;;2.23;1.70;;;7.00;78.00;6.80;97523.00;;;;5059171;28;20279;-89
2022/12/27 08:07:34;;;;;;;2.97;1.90;;;6.90;78.10;6.80;97523.00;;;;5058620;28;20243;-89
2022/12/27 08:10:01;;;;;;;3.27;2.30;;;7.00;78.20;6.80;97527.00;;;;5057777;28;20303;-90
2022/12/27 08:12:28;;;;;;;2.83;2.20;;;7.00;78.20;6.80;97524.00;;;;5061015;28;20429;-90
2022/12/27 08:14:56;;;;;;;2.47;2.23;;;7.00;78.30;6.90;97526.00;;;;5056451;28;20275;-90
2022/12/27 08:17:27;;;;;;;2.20;2.00;;;7.00;78.40;6.90;97514.00;;;;5059318;28;20278;-89
2022/12/27 08:19:55;;;;;;;2.03;1.80;;;7.00;78.50;6.90;97528.00;;;;5058442;28;20208;-90
2022/12/27 08:22:24;;;;;;;2.77;1.40;;;7.00;78.70;7.00;97527.00;;;;5058839;28;20645;-90
2022/12/27 08:24:51;;;;;;;1.53;1.30;;;7.10;79.10;7.00;97526.00;;;;5059635;28;20224;-90
2022/12/27 08:27:21;;;;;;;1.33;1.23;;;7.10;79.20;7.10;97526.00;;;;5059724;28;20211;-90
2022/12/27 08:29:49;;;;;;;1.63;1.20;;;7.10;79.20;7.10;97533.00;;;;5060131;28;20235;-90
2022/12/27 08:32:16;;;;;;;1.00;0.80;;;7.20;80.00;7.20;97534.00;;;;5061508;28;20227;-89
2022/12/27 08:34:45;;;;;;;1.00;0.87;;;7.20;79.50;7.30;97536.00;;;;5060290;28;20311;-88
2022/12/27 08:37:12;;;;;;;0.97;0.80;;;7.30;79.50;7.30;97540.00;;;;5060221;28;20249;-91
2022/12/27 08:39:39;;;;;;;0.60;0.60;;;7.50;79.60;7.40;97547.00;;;;5060583;28;20243;-90
2022/12/27 08:42:06;;;;;;;1.97;0.67;;;7.40;79.40;7.50;97543.00;;;;5058661;28;20701;-90
2022/12/27 08:44:34;;;;;;;1.40;0.90;;;7.50;79.40;7.60;97545.00;;;;5059979;28;20223;-91
2022/12/27 08:47:03;;;;;;;2.63;0.80;;;7.40;79.20;7.60;97547.00;;;;5063398;28;20556;-91
2022/12/27 08:49:30;;;;;;;0.60;0.60;;;7.60;79.10;7.70;97554.00;;;;5059868;28;20211;-87
2022/12/27 08:51:59;;;;;;;2.50;0.77;;;7.70;79.20;7.70;97547.00;;;;5057141;28;20226;-89
2022/12/27 08:54:26;;;;;;;0.60;0.60;;;7.80;79.10;7.80;97554.00;;;;5059922;28;20220;-90
2022/12/27 08:56:53;;;;;;;1.60;0.80;;;7.80;79.10;7.90;97562.00;;;;5062302;28;20723;-90
2022/12/27 08:59:20;;;;;;;1.00;0.67;;;7.90;79.10;7.90;97562.00;;;;5060061;28;20391;-91
2022/12/27 09:01:47;;;;;;;2.23;0.70;;;7.90;79.10;8.00;97564.00;;;;5062923;28;20224;-89
2022/12/27 09:04:14;;;;;;;2.00;1.00;;;8.00;79.00;8.10;97567.00;;;;5059688;28;20957;-89
2022/12/27 09:06:42;;;;;;;2.27;0.90;;;8.00;78.80;8.10;97562.00;;;;5059706;28;20206;-90
2022/12/27 09:09:10;;;;;;;1.13;0.93;;;8.10;78.60;8.20;97574.00;;;;5061297;28;20201;-90
2022/12/27 09:11:37;;;;;;;0.63;0.63;;;8.20;78.80;8.30;97572.00;;;;5061309;28;20703;-91
2022/12/27 09:14:06;;;;;;;0.93;0.70;;;8.20;78.80;8.40;97569.00;;;;5060918;28;20303;-90
2022/12/27 09:16:34;;;;;;;2.73;0.93;;;8.30;78.80;8.40;97569.00;;;;5057958;28;20228;-90
2022/12/27 09:19:02;;;;;;;0.70;0.70;;;8.40;78.80;8.50;97568.00;;;;5061306;28;20204;-90
2022/12/27 09:21:33;;;;;;;0.67;0.67;;;8.40;78.60;8.50;97570.00;;;;5058524;28;20204;-90
2022/12/27 09:24:00;;;;;;;1.40;0.67;;;8.50;78.60;8.60;97583.00;;;;5059484;28;20216;-89
2022/12/27 09:26:30;;;;;;;0.67;0.50;;;8.50;78.50;8.70;97577.00;;;;5061033;28;20292;-90
2022/12/27 09:28:58;;;;;;;2.73;0.80;;;8.60;78.50;8.70;97596.00;;;;5061949;28;20311;-90
2022/12/27 09:31:27;;;;;;;1.07;0.60;;;8.70;78.70;8.80;97599.00;;;;5061915;28;20770;-90
2022/12/27 09:33:55;;;;;;;1.20;0.80;;;8.70;78.60;8.80;97602.00;;;;5058387;28;20303;-90
2022/12/27 09:36:25;;;;;;;1.10;0.57;;;8.80;78.60;8.90;97601.00;;;;5060889;28;20200;-91
2022/12/27 09:38:54;;;;;;;0.53;0.53;;;8.90;78.70;9.00;97603.00;;;;5059333;28;20287;-90
2022/12/27 09:41:43;;;;;;;2.63;1.10;;;9.00;78.70;9.10;97600.00;;;;5060415;28;20220;-90
2022/12/27 09:44:17;;;;;;;3.47;0.87;;;9.10;79.00;9.30;97594.00;;;;5060490;28;20312;-91
2022/12/27 09:46:52;;;;;;;1.80;0.67;;;9.20;80.10;9.40;97602.00;;;;5062894;28;20194;-89
2022/12/27 09:49:31;;;;;;;3.63;0.97;;;9.30;80.00;9.60;97591.00;;;;5058041;28;20223;-90
2022/12/27 09:52:04;;;;;;;3.70;0.80;;;9.50;80.20;9.80;97593.00;;;;5058027;28;20201;-91
2022/12/27 09:54:39;;;;;;;1.77;0.93;;;9.60;80.90;10.00;97582.00;;;;5059520;28;20222;-90
2022/12/27 09:57:18;;;;;;;2.23;0.90;;;9.80;81.30;10.30;97588.00;;;;5059610;28;21128;-90
2022/12/27 09:59:49;;;;;;;5.73;1.40;;;10.00;81.40;10.50;97574.00;;;;5060952;28;20301;-90
2022/12/27 10:02:22;;;;;;;2.37;0.90;;;10.30;81.90;10.70;97574.00;;;;5062093;28;20299;-91
2022/12/27 10:04:51;;;;;;;2.53;0.90;;;10.50;81.70;10.90;97581.00;;;;5060954;28;20299;-90
2022/12/27 10:07:32;;;;;;;0.93;0.80;;;10.70;81.80;11.10;97581.00;;;;5059912;28;20247;-90
2022/12/27 10:10:09;;;;;;;1.07;0.83;;;10.90;81.30;11.30;97581.00;;;;5057546;28;20248;-90
2022/12/27 10:13:08;;;;;;;1.70;0.83;;;11.10;81.10;11.50;97581.00;;;;5056487;28;20239;-90
2022/12/27 10:15:47;;;;;;;2.20;1.00;;;11.30;80.20;11.60;97581.00;;;;5058145;28;20236;-90
2022/12/27 10:18:34;;;;;;;1.53;0.53;;;11.50;80.70;11.80;97584.00;;;;5059916;28;20576;-90
2022/12/27 10:21:15;;;;;;;0.80;0.63;;;11.70;79.80;12.00;97580.00;;;;5060206;28;20659;-89
2022/12/27 10:23:49;;;;;;;1.13;0.80;;;11.90;79.70;12.10;97576.00;;;;5058003;28;20301;-90
2022/12/27 10:26:19;;;;;;;1.40;0.77;;;12.10;79.40;12.30;97573.00;;;;5056977;28;20214;-89
2022/12/27 10:28:54;;;;;;;2.77;0.77;;;12.20;78.80;12.40;97576.00;;;;5055732;28;20283;-89
2022/12/27 10:31:23;;;;;;;0.63;0.50;;;12.40;78.20;12.50;97579.00;;;;5058686;28;20370;-89
2022/12/27 10:33:52;;;;;;;2.37;0.77;;;12.50;78.20;12.60;97574.00;;;;5058179;28;20771;-89
2022/12/27 10:36:24;;;;;;;0.77;0.67;;;12.60;77.90;12.70;97572.00;;;;5059523;28;20228;-90
2022/12/27 10:38:52;;;;;;;0.70;0.70;;;12.70;77.00;12.70;97570.00;;;;5062449;28;20822;-90
2022/12/27 10:41:41;;;;;;;0.97;0.53;;;12.80;76.10;12.70;97575.00;;;;5061928;28;20215;-91
2022/12/27 10:44:12;;;;;;;2.37;0.80;;;12.80;74.20;12.60;97585.00;;;;5059890;28;20241;-90
2022/12/27 10:46:41;;;;;;;1.73;0.60;;;12.80;74.30;12.60;97585.00;;;;5061578;28;20200;-91
2022/12/27 10:49:26;;;;;;;2.30;0.53;;;12.80;73.80;12.50;97580.00;;;;5058214;28;20250;-91
2022/12/27 10:51:58;;;;;;;0.73;0.50;;;12.80;72.50;12.40;97581.00;;;;5063044;28;20261;-92
2022/12/27 10:54:28;;;;;;;1.40;0.60;;;12.70;73.20;12.40;97584.00;;;;5070785;28;20250;-91
2022/12/27 10:56:57;;;;;;;1.57;0.70;;;12.60;72.70;12.30;97575.00;;;;5065211;28;20196;-91
2022/12/27 10:59:28;;;;;;;0.73;0.70;;;12.50;72.00;12.20;97575.00;;;;5056380;28;20199;-91
2022/12/27 11:02:18;;;;;;;0.77;0.77;;;12.50;71.40;12.10;97572.00;;;;5057754;28;20208;-92
2022/12/27 11:05:00;;;;;;;0.50;0.40;;;12.40;69.60;12.00;97568.00;;;;5064212;28;20232;-91
2022/12/27 11:07:33;;;;;;;0.63;0.50;;;12.40;69.90;11.90;97572.00;;;;5062680;28;20296;-92
2022/12/27 11:10:15;;;;;;;0.67;0.60;;;12.20;70.30;11.90;97566.00;;;;5067797;28;20222;-91
2022/12/27 11:13:00;;;;;;;0.70;0.50;;;12.20;70.10;11.80;97562.00;;;;5063488;28;20195;-91
2022/12/27 11:15:33;;;;;;;1.33;0.50;;;12.00;69.80;11.70;97569.00;;;;5057986;28;20235;-92
2022/12/27 11:18:09;;;;;;;0.60;0.40;;;12.00;70.90;11.70;97556.00;;;;5055650;28;20197;-91
2022/12/27 11:20:40;;;;;;;0.77;0.70;;;11.90;69.90;11.60;97555.00;;;;5060295;28;20231;-91
2022/12/27 11:23:16;;;;;;;0.60;0.50;;;11.80;70.00;11.50;97552.00;;;;5057600;28;20224;-91
2022/12/27 11:25:53;;;;;;;1.00;0.40;;;11.80;70.20;11.50;97558.00;;;;5057953;28;20280;-91
2022/12/27 11:28:31;;;;;;;0.30;0.30;;;11.70;69.80;11.50;97557.00;;;;5064782;28;20295;-91
2022/12/27 11:31:08;;;;;;;0.53;0.40;;;11.70;70.20;11.50;97546.00;;;;5059062;28;20224;-91
2022/12/27 11:33:40;;;;;;;2.27;0.40;;;11.60;70.00;11.40;97553.00;;;;5045014;28;20266;-91
2022/12/27 11:36:11;;;;;;;3.63;0.80;;;11.60;70.10;11.40;97546.00;;;;5064163;28;20284;-90
2022/12/27 11:38:42;;;;;;;0.93;0.40;;;11.50;70.30;11.40;97543.00;;;;5069227;28;20624;-92
2022/12/27 11:41:17;;;;;;;1.23;0.40;;;11.50;70.00;11.30;97538.00;;;;5072559;28;20216;-91
2022/12/27 11:43:50;;;;;;;0.30;0.20;;;11.50;69.10;11.30;97537.00;;;;5069575;28;20657;-92
2022/12/27 11:46:30;;;;;;;2.47;0.40;;;11.50;69.10;11.30;97537.00;;;;5061956;28;20192;-92
2022/12/27 11:48:59;;;;;;;0.30;0.30;;;11.50;69.20;11.30;97533.00;;;;5073209;28;20207;-91
2022/12/27 11:52:08;;;;;;;0.97;0.50;;;11.40;69.30;11.30;97533.00;;;;5068363;28;20258;-91
2022/12/27 11:55:27;;;;;;;1.33;0.50;;;11.40;68.20;11.30;97531.00;;;;5061104;28;20756;-91
2022/12/27 11:58:28;;;;;;;1.83;0.37;;;11.40;68.80;11.30;97533.00;;;;5060800;28;20231;-91
2022/12/27 12:01:09;;;;;;;0.30;0.30;;;11.40;68.70;11.20;97531.00;;;;5067736;28;20294;-91
2022/12/27 12:04:14;;;;;;;1.70;0.40;;;11.40;69.40;11.20;97530.00;;;;5068902;28;20231;-90
2022/12/27 12:06:55;;;;;;;1.63;0.57;;;11.40;68.40;11.20;97527.00;;;;5035716;28;20239;-92
2022/12/27 12:09:56;;;;;;;1.60;0.50;;;11.40;69.30;11.20;97526.00;;;;5062402;28;20211;-91
2022/12/27 12:13:14;;;;;;;0.37;0.37;;;11.40;69.30;11.20;97519.00;;;;5059298;28;20832;-90
2022/12/27 12:16:39;;;;;;;0.67;0.57;;;11.40;68.30;11.20;97527.00;;;;5064556;28;20696;-90
2022/12/27 12:19:33;;;;;;;0.63;0.40;;;11.40;68.50;11.30;97514.00;;;;5048782;28;20197;-92
2022/12/27 12:22:20;;;;;;;0.97;0.50;;;11.40;69.60;11.30;97511.00;;;;5062114;28;20286;-91
2022/12/27 12:25:34;;;;;;;0.70;0.40;;;11.40;69.40;11.30;97517.00;;;;5062975;28;20326;-91
2022/12/27 12:28:53;;;;;;;0.50;0.40;;;11.40;69.20;11.40;97517.00;;;;5028238;28;20220;-92
2022/12/27 12:31:48;;;;;;;1.00;0.30;;;11.40;69.00;11.40;97514.00;;;;5044660;28;20228;-91
2022/12/27 12:34:42;;;;;;;0.57;0.30;;;11.40;69.40;11.40;97505.00;;;;5065012;28;20233;-90
2022/12/27 12:37:27;;;;;;;1.07;0.43;;;11.40;68.80;11.40;97504.00;;;;5071008;28;20655;-91
2022/12/27 12:40:21;;;;;;;0.97;0.30;;;11.50;68.80;11.40;97504.00;;;;5069173;28;20241;-91
2022/12/27 12:43:04;;;;;;;3.13;0.67;;;11.50;68.60;11.40;97500.00;;;;5065532;28;20316;-91
2022/12/27 12:46:00;;;;;;;0.40;0.30;;;11.40;68.80;11.40;97510.00;;;;5063708;28;20204;-90
2022/12/27 12:49:30;;;;;;;0.30;0.30;;;11.50;67.90;11.50;97502.00;;;;5058793;28;20287;-91
2022/12/27 12:52:36;;;;;;;0.50;0.40;;;11.60;67.30;11.50;97500.00;;;;5038186;28;20874;-92
2022/12/27 12:55:38;;;;;;;0.67;0.40;;;11.50;67.80;11.50;97512.00;;;;5056590;28;20678;-90
2022/12/27 12:58:24;;;;;;;1.13;0.30;;;11.60;67.60;11.50;97504.00;;;;5057802;28;20667;-91
2022/12/27 13:01:25;;;;;;;0.77;0.20;;;11.60;68.10;11.50;97495.00;;;;5060249;28;20675;-92